sensor_id;sensor_type;location;lat;lon;timestamp;temperature;humidity
4245;DHT22;2136;48.502;9.194;2024-03-22T00:01:59;11.80;75.30
4245;DHT22;2136;48.502;9.194;2024-03-22T00:04:25;11.80;75.80
4245;DHT22;2136;48.502;9.194;2024-03-22T00:06:52;11.70;76.10
4245;DHT22;2136;48.502;9.194;2024-03-22T00:09:18;11.60;76.60
4245;DHT22;2136;48.502;9.194;2024-03-22T00:11:45;11.60;77.40
4245;DHT22;2136;48.502;9.194;2024-03-22T00:14:11;11.50;77.90
4245;DHT22;2136;48.502;9.194;2024-03-22T00:16:39;11.50;78.50
4245;DHT22;2136;48.502;9.194;2024-03-22T00:19:06;11.40;78.80
4245;DHT22;2136;48.502;9.194;2024-03-22T00:21:33;11.40;79.40
4245;DHT22;2136;48.502;9.194;2024-03-22T00:23:58;11.40;79.90
4245;DHT22;2136;48.502;9.194;2024-03-22T00:26:26;11.30;80.30
4245;DHT22;2136;48.502;9.194;2024-03-22T00:28:52;11.30;80.80
4245;DHT22;2136;48.502;9.194;2024-03-22T00:31:19;11.20;81.00
4245;DHT22;2136;48.502;9.194;2024-03-22T00:33:45;11.20;81.40
4245;DHT22;2136;48.502;9.194;2024-03-22T00:36:13;11.30;81.90
4245;DHT22;2136;48.502;9.194;2024-03-22T00:38:39;11.20;82.20
4245;DHT22;2136;48.502;9.194;2024-03-22T00:41:05;11.10;82.40
4245;DHT22;2136;48.502;9.194;2024-03-22T00:43:32;11.10;82.80
4245;DHT22;2136;48.502;9.194;2024-03-22T00:45:58;11.10;83.30
4245;DHT22;2136;48.502;9.194;2024-03-22T00:48:25;11.00;83.60
4245;DHT22;2136;48.502;9.194;2024-03-22T00:50:52;11.00;83.70
4245;DHT22;2136;48.502;9.194;2024-03-22T00:53:19;11.00;84.40
4245;DHT22;2136;48.502;9.194;2024-03-22T00:55:46;11.00;84.60
4245;DHT22;2136;48.502;9.194;2024-03-22T00:58:17;11.00;84.30
4245;DHT22;2136;48.502;9.194;2024-03-22T01:00:44;11.00;85.10
4245;DHT22;2136;48.502;9.194;2024-03-22T01:03:10;10.90;84.30
4245;DHT22;2136;48.502;9.194;2024-03-22T01:05:37;10.90;84.60
4245;DHT22;2136;48.502;9.194;2024-03-22T01:08:03;10.90;85.20
4245;DHT22;2136;48.502;9.194;2024-03-22T01:10:33;10.90;86.10
4245;DHT22;2136;48.502;9.194;2024-03-22T01:12:59;10.90;86.60
4245;DHT22;2136;48.502;9.194;2024-03-22T01:15:26;10.90;86.50
4245;DHT22;2136;48.502;9.194;2024-03-22T01:17:52;10.90;86.20
4245;DHT22;2136;48.502;9.194;2024-03-22T01:20:19;10.90;86.00
4245;DHT22;2136;48.502;9.194;2024-03-22T01:22:45;10.90;85.10
4245;DHT22;2136;48.502;9.194;2024-03-22T01:25:12;10.90;84.50
4245;DHT22;2136;48.502;9.194;2024-03-22T01:27:39;10.90;84.60
4245;DHT22;2136;48.502;9.194;2024-03-22T01:30:07;10.90;84.30
4245;DHT22;2136;48.502;9.194;2024-03-22T01:32:34;10.90;84.10
4245;DHT22;2136;48.502;9.194;2024-03-22T01:35:01;10.90;84.00
4245;DHT22;2136;48.502;9.194;2024-03-22T01:37:27;10.90;83.80
4245;DHT22;2136;48.502;9.194;2024-03-22T01:39:53;10.90;83.20
4245;DHT22;2136;48.502;9.194;2024-03-22T01:42:19;10.90;82.90
4245;DHT22;2136;48.502;9.194;2024-03-22T01:44:49;10.90;83.40
4245;DHT22;2136;48.502;9.194;2024-03-22T01:47:15;10.80;82.40
4245;DHT22;2136;48.502;9.194;2024-03-22T01:49:42;10.80;82.40
4245;DHT22;2136;48.502;9.194;2024-03-22T01:52:08;10.70;82.20
4245;DHT22;2136;48.502;9.194;2024-03-22T01:54:35;10.70;82.00
4245;DHT22;2136;48.502;9.194;2024-03-22T01:57:01;10.60;81.10
4245;DHT22;2136;48.502;9.194;2024-03-22T01:59:28;10.60;80.80
4245;DHT22;2136;48.502;9.194;2024-03-22T02:01:55;10.50;80.90
4245;DHT22;2136;48.502;9.194;2024-03-22T02:04:22;10.50;80.90
4245;DHT22;2136;48.502;9.194;2024-03-22T02:06:48;10.40;80.50
4245;DHT22;2136;48.502;9.194;2024-03-22T02:09:15;10.40;80.40
4245;DHT22;2136;48.502;9.194;2024-03-22T02:11:43;10.30;80.70
4245;DHT22;2136;48.502;9.194;2024-03-22T02:14:10;10.30;81.30
4245;DHT22;2136;48.502;9.194;2024-03-22T02:16:35;10.30;81.70
4245;DHT22;2136;48.502;9.194;2024-03-22T02:19:03;10.20;82.00
4245;DHT22;2136;48.502;9.194;2024-03-22T02:21:29;10.10;82.20
4245;DHT22;2136;48.502;9.194;2024-03-22T02:23:57;10.10;82.70
4245;DHT22;2136;48.502;9.194;2024-03-22T02:26:23;10.10;83.10
4245;DHT22;2136;48.502;9.194;2024-03-22T02:28:50;10.10;83.20
4245;DHT22;2136;48.502;9.194;2024-03-22T02:31:16;10.00;83.00
4245;DHT22;2136;48.502;9.194;2024-03-22T02:33:43;10.00;83.50
4245;DHT22;2136;48.502;9.194;2024-03-22T02:36:09;10.00;83.90
4245;DHT22;2136;48.502;9.194;2024-03-22T02:38:36;10.00;84.10
4245;DHT22;2136;48.502;9.194;2024-03-22T02:41:03;9.90;85.00
4245;DHT22;2136;48.502;9.194;2024-03-22T02:43:30;9.90;84.60
4245;DHT22;2136;48.502;9.194;2024-03-22T02:45:55;9.90;84.40
4245;DHT22;2136;48.502;9.194;2024-03-22T02:48:22;9.80;84.20
4245;DHT22;2136;48.502;9.194;2024-03-22T02:50:48;9.80;84.30
4245;DHT22;2136;48.502;9.194;2024-03-22T02:53:15;9.70;84.30
4245;DHT22;2136;48.502;9.194;2024-03-22T02:55:41;9.70;84.40
4245;DHT22;2136;48.502;9.194;2024-03-22T02:58:09;9.60;84.90
4245;DHT22;2136;48.502;9.194;2024-03-22T03:00:36;9.60;85.40
4245;DHT22;2136;48.502;9.194;2024-03-22T03:03:04;9.60;85.70
4245;DHT22;2136;48.502;9.194;2024-03-22T03:05:30;9.50;85.90
4245;DHT22;2136;48.502;9.194;2024-03-22T03:07:56;9.50;86.20
4245;DHT22;2136;48.502;9.194;2024-03-22T03:10:22;9.50;86.80
4245;DHT22;2136;48.502;9.194;2024-03-22T03:12:49;9.40;87.10
4245;DHT22;2136;48.502;9.194;2024-03-22T03:15:17;9.40;87.10
4245;DHT22;2136;48.502;9.194;2024-03-22T03:17:44;9.40;87.80
4245;DHT22;2136;48.502;9.194;2024-03-22T03:20:11;9.30;87.00
4245;DHT22;2136;48.502;9.194;2024-03-22T03:22:39;9.30;87.00
4245;DHT22;2136;48.502;9.194;2024-03-22T03:25:05;9.20;87.90
4245;DHT22;2136;48.502;9.194;2024-03-22T03:27:32;9.20;88.70
4245;DHT22;2136;48.502;9.194;2024-03-22T03:29:58;9.20;89.40
4245;DHT22;2136;48.502;9.194;2024-03-22T03:32:26;9.20;89.60
4245;DHT22;2136;48.502;9.194;2024-03-22T03:34:52;9.20;89.50
4245;DHT22;2136;48.502;9.194;2024-03-22T03:37:19;9.20;90.00
4245;DHT22;2136;48.502;9.194;2024-03-22T03:39:45;9.20;90.30
4245;DHT22;2136;48.502;9.194;2024-03-22T03:42:11;9.30;90.70
4245;DHT22;2136;48.502;9.194;2024-03-22T03:44:37;9.30;90.70
4245;DHT22;2136;48.502;9.194;2024-03-22T03:47:04;9.30;90.80
4245;DHT22;2136;48.502;9.194;2024-03-22T03:49:32;9.40;90.70
4245;DHT22;2136;48.502;9.194;2024-03-22T03:51:58;9.40;90.70
4245;DHT22;2136;48.502;9.194;2024-03-22T03:54:24;9.40;90.00
4245;DHT22;2136;48.502;9.194;2024-03-22T03:56:51;9.50;89.10
4245;DHT22;2136;48.502;9.194;2024-03-22T03:59:17;9.50;88.10
4245;DHT22;2136;48.502;9.194;2024-03-22T04:01:44;9.50;87.10
4245;DHT22;2136;48.502;9.194;2024-03-22T04:04:10;9.50;86.40
4245;DHT22;2136;48.502;9.194;2024-03-22T04:06:38;9.40;86.00
4245;DHT22;2136;48.502;9.194;2024-03-22T04:09:04;9.40;85.50
4245;DHT22;2136;48.502;9.194;2024-03-22T04:11:31;9.50;86.20
4245;DHT22;2136;48.502;9.194;2024-03-22T04:13:57;9.50;84.90
4245;DHT22;2136;48.502;9.194;2024-03-22T04:16:24;9.40;84.70
4245;DHT22;2136;48.502;9.194;2024-03-22T04:18:50;9.40;84.70
4245;DHT22;2136;48.502;9.194;2024-03-22T04:21:17;9.30;84.60
4245;DHT22;2136;48.502;9.194;2024-03-22T04:23:44;9.30;84.60
4245;DHT22;2136;48.502;9.194;2024-03-22T04:26:11;9.20;84.70
4245;DHT22;2136;48.502;9.194;2024-03-22T04:28:37;9.20;85.10
4245;DHT22;2136;48.502;9.194;2024-03-22T04:31:06;9.20;85.40
4245;DHT22;2136;48.502;9.194;2024-03-22T04:33:33;9.10;85.80
4245;DHT22;2136;48.502;9.194;2024-03-22T04:36:01;9.10;86.40
4245;DHT22;2136;48.502;9.194;2024-03-22T04:38:27;9.10;87.00
4245;DHT22;2136;48.502;9.194;2024-03-22T04:40:56;9.00;87.40
4245;DHT22;2136;48.502;9.194;2024-03-22T04:43:23;9.00;87.90
4245;DHT22;2136;48.502;9.194;2024-03-22T04:45:51;9.00;88.30
4245;DHT22;2136;48.502;9.194;2024-03-22T04:48:19;9.00;88.60
4245;DHT22;2136;48.502;9.194;2024-03-22T04:50:46;9.00;89.20
4245;DHT22;2136;48.502;9.194;2024-03-22T04:53:15;8.90;89.50
4245;DHT22;2136;48.502;9.194;2024-03-22T04:55:42;8.90;89.70
4245;DHT22;2136;48.502;9.194;2024-03-22T04:58:13;8.90;89.90
4245;DHT22;2136;48.502;9.194;2024-03-22T05:00:39;8.90;90.00
4245;DHT22;2136;48.502;9.194;2024-03-22T05:03:08;8.90;90.00
4245;DHT22;2136;48.502;9.194;2024-03-22T05:05:35;8.90;90.30
4245;DHT22;2136;48.502;9.194;2024-03-22T05:08:02;9.00;90.60
4245;DHT22;2136;48.502;9.194;2024-03-22T05:10:28;9.00;90.80
4245;DHT22;2136;48.502;9.194;2024-03-22T05:12:55;9.00;91.00
4245;DHT22;2136;48.502;9.194;2024-03-22T05:15:23;9.00;91.30
4245;DHT22;2136;48.502;9.194;2024-03-22T05:17:51;9.00;91.40
4245;DHT22;2136;48.502;9.194;2024-03-22T05:20:17;9.00;91.50
4245;DHT22;2136;48.502;9.194;2024-03-22T05:22:43;9.00;91.70
4245;DHT22;2136;48.502;9.194;2024-03-22T05:25:09;9.00;92.00
4245;DHT22;2136;48.502;9.194;2024-03-22T05:27:36;9.00;92.40
4245;DHT22;2136;48.502;9.194;2024-03-22T05:30:03;9.00;92.80
4245;DHT22;2136;48.502;9.194;2024-03-22T05:32:32;9.10;92.90
4245;DHT22;2136;48.502;9.194;2024-03-22T05:34:57;9.10;93.00
4245;DHT22;2136;48.502;9.194;2024-03-22T05:37:24;9.20;93.10
4245;DHT22;2136;48.502;9.194;2024-03-22T05:39:50;9.20;92.90
4245;DHT22;2136;48.502;9.194;2024-03-22T05:42:17;9.30;92.80
4245;DHT22;2136;48.502;9.194;2024-03-22T05:44:43;9.30;92.80
4245;DHT22;2136;48.502;9.194;2024-03-22T05:47:10;9.40;92.80
4245;DHT22;2136;48.502;9.194;2024-03-22T05:49:37;9.40;92.80
4245;DHT22;2136;48.502;9.194;2024-03-22T05:52:04;9.60;93.10
4245;DHT22;2136;48.502;9.194;2024-03-22T05:54:30;9.60;93.10
4245;DHT22;2136;48.502;9.194;2024-03-22T05:56:57;9.80;93.10
4245;DHT22;2136;48.502;9.194;2024-03-22T05:59:23;9.80;92.80
4245;DHT22;2136;48.502;9.194;2024-03-22T06:01:49;9.80;92.40
4245;DHT22;2136;48.502;9.194;2024-03-22T06:04:15;9.90;92.00
4245;DHT22;2136;48.502;9.194;2024-03-22T06:06:43;10.00;91.20
4245;DHT22;2136;48.502;9.194;2024-03-22T06:09:09;10.00;90.60
4245;DHT22;2136;48.502;9.194;2024-03-22T06:11:38;10.00;90.40
4245;DHT22;2136;48.502;9.194;2024-03-22T06:14:05;10.10;89.10
4245;DHT22;2136;48.502;9.194;2024-03-22T06:16:32;10.10;88.20
4245;DHT22;2136;48.502;9.194;2024-03-22T06:18:57;10.20;87.60
4245;DHT22;2136;48.502;9.194;2024-03-22T06:21:24;10.20;87.00
4245;DHT22;2136;48.502;9.194;2024-03-22T06:23:52;10.30;86.40
4245;DHT22;2136;48.502;9.194;2024-03-22T06:26:19;10.30;86.50
4245;DHT22;2136;48.502;9.194;2024-03-22T06:28:45;10.30;86.40
4245;DHT22;2136;48.502;9.194;2024-03-22T06:31:12;10.30;85.80
4245;DHT22;2136;48.502;9.194;2024-03-22T06:33:38;10.40;85.20
4245;DHT22;2136;48.502;9.194;2024-03-22T06:36:05;10.30;84.90
4245;DHT22;2136;48.502;9.194;2024-03-22T06:38:31;10.40;84.50
4245;DHT22;2136;48.502;9.194;2024-03-22T06:40:59;10.40;83.80
4245;DHT22;2136;48.502;9.194;2024-03-22T06:43:25;10.40;83.20
4245;DHT22;2136;48.502;9.194;2024-03-22T06:45:52;10.40;82.70
4245;DHT22;2136;48.502;9.194;2024-03-22T06:48:17;10.40;82.60
4245;DHT22;2136;48.502;9.194;2024-03-22T06:50:44;10.40;83.00
4245;DHT22;2136;48.502;9.194;2024-03-22T06:53:11;10.40;83.40
4245;DHT22;2136;48.502;9.194;2024-03-22T06:55:38;10.50;83.80
4245;DHT22;2136;48.502;9.194;2024-03-22T06:58:05;10.60;83.90
4245;DHT22;2136;48.502;9.194;2024-03-22T07:00:32;10.70;84.10
4245;DHT22;2136;48.502;9.194;2024-03-22T07:03:00;10.90;84.30
4245;DHT22;2136;48.502;9.194;2024-03-22T07:05:28;11.00;83.80
4245;DHT22;2136;48.502;9.194;2024-03-22T07:07:54;11.20;83.00
4245;DHT22;2136;48.502;9.194;2024-03-22T07:10:23;11.40;82.00
4245;DHT22;2136;48.502;9.194;2024-03-22T07:12:53;11.50;80.60
4245;DHT22;2136;48.502;9.194;2024-03-22T07:15:21;11.60;79.90
4245;DHT22;2136;48.502;9.194;2024-03-22T07:17:47;11.80;79.20
4245;DHT22;2136;48.502;9.194;2024-03-22T07:20:14;11.90;78.30
4245;DHT22;2136;48.502;9.194;2024-03-22T07:22:40;12.00;77.30
4245;DHT22;2136;48.502;9.194;2024-03-22T07:25:07;12.20;76.40
4245;DHT22;2136;48.502;9.194;2024-03-22T07:27:35;12.30;75.60
4245;DHT22;2136;48.502;9.194;2024-03-22T07:30:02;12.40;75.10
4245;DHT22;2136;48.502;9.194;2024-03-22T07:32:29;12.50;74.60
4245;DHT22;2136;48.502;9.194;2024-03-22T07:34:56;12.60;74.10
4245;DHT22;2136;48.502;9.194;2024-03-22T07:37:22;12.70;73.80
4245;DHT22;2136;48.502;9.194;2024-03-22T07:39:49;12.80;73.40
4245;DHT22;2136;48.502;9.194;2024-03-22T07:42:15;12.90;73.00
4245;DHT22;2136;48.502;9.194;2024-03-22T07:44:42;12.90;72.70
4245;DHT22;2136;48.502;9.194;2024-03-22T07:47:07;13.00;72.30
4245;DHT22;2136;48.502;9.194;2024-03-22T07:49:36;13.00;71.60
4245;DHT22;2136;48.502;9.194;2024-03-22T07:52:02;13.10;71.50
4245;DHT22;2136;48.502;9.194;2024-03-22T07:54:29;13.10;71.10
4245;DHT22;2136;48.502;9.194;2024-03-22T07:56:55;13.20;71.10
4245;DHT22;2136;48.502;9.194;2024-03-22T07:59:22;13.30;70.90
4245;DHT22;2136;48.502;9.194;2024-03-22T08:01:48;13.40;70.60
4245;DHT22;2136;48.502;9.194;2024-03-22T08:04:14;13.40;70.40
4245;DHT22;2136;48.502;9.194;2024-03-22T08:06:42;13.50;70.40
4245;DHT22;2136;48.502;9.194;2024-03-22T08:09:08;13.70;70.30
4245;DHT22;2136;48.502;9.194;2024-03-22T08:11:34;13.80;69.80
4245;DHT22;2136;48.502;9.194;2024-03-22T08:14:01;13.90;69.30
4245;DHT22;2136;48.502;9.194;2024-03-22T08:16:28;14.00;68.80
4245;DHT22;2136;48.502;9.194;2024-03-22T08:18:55;14.20;69.00
4245;DHT22;2136;48.502;9.194;2024-03-22T08:21:22;14.40;68.10
4245;DHT22;2136;48.502;9.194;2024-03-22T08:23:51;14.50;67.80
4245;DHT22;2136;48.502;9.194;2024-03-22T08:26:17;14.70;67.00
4245;DHT22;2136;48.502;9.194;2024-03-22T08:28:44;15.00;66.50
4245;DHT22;2136;48.502;9.194;2024-03-22T08:31:10;15.20;65.90
4245;DHT22;2136;48.502;9.194;2024-03-22T08:33:37;15.60;65.80
4245;DHT22;2136;48.502;9.194;2024-03-22T08:36:03;15.80;65.20
4245;DHT22;2136;48.502;9.194;2024-03-22T08:38:30;16.10;64.10
4245;DHT22;2136;48.502;9.194;2024-03-22T08:40:57;16.50;62.20
4245;DHT22;2136;48.502;9.194;2024-03-22T08:43:24;17.30;61.10
4245;DHT22;2136;48.502;9.194;2024-03-22T08:45:51;18.60;59.00
4245;DHT22;2136;48.502;9.194;2024-03-22T08:48:18;20.40;56.90
4245;DHT22;2136;48.502;9.194;2024-03-22T08:50:44;22.20;53.60
4245;DHT22;2136;48.502;9.194;2024-03-22T08:53:11;24.20;50.40
4245;DHT22;2136;48.502;9.194;2024-03-22T08:55:37;26.10;47.30
4245;DHT22;2136;48.502;9.194;2024-03-22T08:58:05;28.00;44.40
4245;DHT22;2136;48.502;9.194;2024-03-22T09:00:31;29.90;41.30
4245;DHT22;2136;48.502;9.194;2024-03-22T09:02:58;31.30;38.70
4245;DHT22;2136;48.502;9.194;2024-03-22T09:05:23;32.80;37.90
4245;DHT22;2136;48.502;9.194;2024-03-22T09:07:50;34.30;36.70
4245;DHT22;2136;48.502;9.194;2024-03-22T09:10:19;35.80;36.20
4245;DHT22;2136;48.502;9.194;2024-03-22T09:12:46;37.20;33.70
4245;DHT22;2136;48.502;9.194;2024-03-22T09:15:13;38.20;32.20
4245;DHT22;2136;48.502;9.194;2024-03-22T09:17:40;39.30;30.90
4245;DHT22;2136;48.502;9.194;2024-03-22T09:20:07;40.40;29.50
4245;DHT22;2136;48.502;9.194;2024-03-22T09:22:33;41.20;28.60
4245;DHT22;2136;48.502;9.194;2024-03-22T09:24:59;42.00;27.60
4245;DHT22;2136;48.502;9.194;2024-03-22T09:27:26;42.70;26.80
4245;DHT22;2136;48.502;9.194;2024-03-22T09:29:52;43.10;25.00
4245;DHT22;2136;48.502;9.194;2024-03-22T09:32:20;43.10;25.30
4245;DHT22;2136;48.502;9.194;2024-03-22T09:34:48;43.20;24.70
4245;DHT22;2136;48.502;9.194;2024-03-22T09:37:15;43.50;24.40
4245;DHT22;2136;48.502;9.194;2024-03-22T09:39:42;43.60;23.00
4245;DHT22;2136;48.502;9.194;2024-03-22T09:42:13;43.30;22.50
4245;DHT22;2136;48.502;9.194;2024-03-22T09:44:46;42.50;22.90
4245;DHT22;2136;48.502;9.194;2024-03-22T09:47:15;42.20;23.40
4245;DHT22;2136;48.502;9.194;2024-03-22T09:49:42;41.90;23.40
4245;DHT22;2136;48.502;9.194;2024-03-22T09:52:13;41.50;23.50
4245;DHT22;2136;48.502;9.194;2024-03-22T09:54:41;40.90;23.90
4245;DHT22;2136;48.502;9.194;2024-03-22T09:57:11;40.30;24.10
4245;DHT22;2136;48.502;9.194;2024-03-22T09:59:39;39.80;24.70
4245;DHT22;2136;48.502;9.194;2024-03-22T10:02:10;39.40;25.10
4245;DHT22;2136;48.502;9.194;2024-03-22T10:04:36;39.00;25.10
4245;DHT22;2136;48.502;9.194;2024-03-22T10:07:05;38.80;25.20
4245;DHT22;2136;48.502;9.194;2024-03-22T10:09:31;38.50;24.90
4245;DHT22;2136;48.502;9.194;2024-03-22T10:11:59;38.20;24.80
4245;DHT22;2136;48.502;9.194;2024-03-22T10:14:25;37.90;24.90
4245;DHT22;2136;48.502;9.194;2024-03-22T10:16:52;37.40;24.30
4245;DHT22;2136;48.502;9.194;2024-03-22T10:19:19;37.40;24.60
4245;DHT22;2136;48.502;9.194;2024-03-22T10:21:46;37.90;24.90
4245;DHT22;2136;48.502;9.194;2024-03-22T10:24:14;38.60;24.50
4245;DHT22;2136;48.502;9.194;2024-03-22T10:26:40;39.50;24.40
4245;DHT22;2136;48.502;9.194;2024-03-22T10:29:06;40.70;24.10
4245;DHT22;2136;48.502;9.194;2024-03-22T10:31:34;41.80;23.30
4245;DHT22;2136;48.502;9.194;2024-03-22T10:34:02;41.20;22.50
4245;DHT22;2136;48.502;9.194;2024-03-22T10:36:31;40.00;22.40
4245;DHT22;2136;48.502;9.194;2024-03-22T10:38:59;38.30;22.30
4245;DHT22;2136;48.502;9.194;2024-03-22T10:41:29;36.80;23.40
4245;DHT22;2136;48.502;9.194;2024-03-22T10:43:58;36.00;24.50
4245;DHT22;2136;48.502;9.194;2024-03-22T10:46:29;36.00;25.30
4245;DHT22;2136;48.502;9.194;2024-03-22T10:48:57;36.60;25.20
4245;DHT22;2136;48.502;9.194;2024-03-22T10:51:25;37.10;25.00
4245;DHT22;2136;48.502;9.194;2024-03-22T10:53:53;37.60;24.90
4245;DHT22;2136;48.502;9.194;2024-03-22T10:56:22;37.60;24.80
4245;DHT22;2136;48.502;9.194;2024-03-22T10:58:53;37.10;24.50
4245;DHT22;2136;48.502;9.194;2024-03-22T11:01:24;36.40;24.60
4245;DHT22;2136;48.502;9.194;2024-03-22T11:03:51;36.20;25.20
4245;DHT22;2136;48.502;9.194;2024-03-22T11:06:19;36.60;25.20
4245;DHT22;2136;48.502;9.194;2024-03-22T11:08:49;36.80;25.10
4245;DHT22;2136;48.502;9.194;2024-03-22T11:11:18;36.50;24.80
4245;DHT22;2136;48.502;9.194;2024-03-22T11:13:47;36.60;24.90
4245;DHT22;2136;48.502;9.194;2024-03-22T11:16:16;36.50;23.80
4245;DHT22;2136;48.502;9.194;2024-03-22T11:18:42;36.90;24.10
4245;DHT22;2136;48.502;9.194;2024-03-22T11:21:10;37.30;23.90
4245;DHT22;2136;48.502;9.194;2024-03-22T11:23:37;37.60;23.40
4245;DHT22;2136;48.502;9.194;2024-03-22T11:26:04;37.90;23.20
4245;DHT22;2136;48.502;9.194;2024-03-22T11:28:30;38.40;22.90
4245;DHT22;2136;48.502;9.194;2024-03-22T11:30:57;38.90;22.70
4245;DHT22;2136;48.502;9.194;2024-03-22T11:33:25;39.30;22.30
4245;DHT22;2136;48.502;9.194;2024-03-22T11:35:53;39.30;22.00
4245;DHT22;2136;48.502;9.194;2024-03-22T11:38:19;38.80;21.70
4245;DHT22;2136;48.502;9.194;2024-03-22T11:40:47;38.20;22.10
4245;DHT22;2136;48.502;9.194;2024-03-22T11:43:15;37.60;22.50
4245;DHT22;2136;48.502;9.194;2024-03-22T11:45:42;37.10;22.80
4245;DHT22;2136;48.502;9.194;2024-03-22T11:48:09;36.40;22.90
4245;DHT22;2136;48.502;9.194;2024-03-22T11:50:38;35.60;23.20
4245;DHT22;2136;48.502;9.194;2024-03-22T11:53:05;34.60;23.70
4245;DHT22;2136;48.502;9.194;2024-03-22T11:55:35;33.70;24.30
4245;DHT22;2136;48.502;9.194;2024-03-22T11:58:02;32.70;24.90
4245;DHT22;2136;48.502;9.194;2024-03-22T12:00:29;31.80;25.20
4245;DHT22;2136;48.502;9.194;2024-03-22T12:02:55;31.20;26.10
4245;DHT22;2136;48.502;9.194;2024-03-22T12:05:22;30.60;26.20
4245;DHT22;2136;48.502;9.194;2024-03-22T12:07:52;30.00;26.80
4245;DHT22;2136;48.502;9.194;2024-03-22T12:10:19;29.50;27.20
4245;DHT22;2136;48.502;9.194;2024-03-22T12:12:46;28.90;27.20
4245;DHT22;2136;48.502;9.194;2024-03-22T12:15:13;28.30;27.80
4245;DHT22;2136;48.502;9.194;2024-03-22T12:17:39;27.80;28.40
4245;DHT22;2136;48.502;9.194;2024-03-22T12:20:09;27.40;29.10
4245;DHT22;2136;48.502;9.194;2024-03-22T12:22:36;26.90;29.90
4245;DHT22;2136;48.502;9.194;2024-03-22T12:25:05;26.60;30.30
4245;DHT22;2136;48.502;9.194;2024-03-22T12:27:31;26.20;30.50
4245;DHT22;2136;48.502;9.194;2024-03-22T12:29:58;26.00;30.80
4245;DHT22;2136;48.502;9.194;2024-03-22T12:32:25;25.70;30.80
4245;DHT22;2136;48.502;9.194;2024-03-22T12:34:52;25.50;30.80
4245;DHT22;2136;48.502;9.194;2024-03-22T12:37:18;25.40;30.60
4245;DHT22;2136;48.502;9.194;2024-03-22T12:39:44;25.20;31.00
4245;DHT22;2136;48.502;9.194;2024-03-22T12:42:11;25.10;31.20
4245;DHT22;2136;48.502;9.194;2024-03-22T12:44:38;25.00;31.60
4245;DHT22;2136;48.502;9.194;2024-03-22T12:47:04;24.90;31.60
4245;DHT22;2136;48.502;9.194;2024-03-22T12:49:31;24.80;31.30
4245;DHT22;2136;48.502;9.194;2024-03-22T12:51:57;24.80;31.40
4245;DHT22;2136;48.502;9.194;2024-03-22T12:54:24;24.80;31.70
4245;DHT22;2136;48.502;9.194;2024-03-22T12:56:51;24.80;32.00
4245;DHT22;2136;48.502;9.194;2024-03-22T12:59:19;24.80;31.90
4245;DHT22;2136;48.502;9.194;2024-03-22T13:01:44;24.80;32.20
4245;DHT22;2136;48.502;9.194;2024-03-22T13:04:11;24.80;32.30
4245;DHT22;2136;48.502;9.194;2024-03-22T13:06:37;24.90;32.40
4245;DHT22;2136;48.502;9.194;2024-03-22T13:09:04;24.90;32.80
4245;DHT22;2136;48.502;9.194;2024-03-22T13:11:30;25.00;32.70
4245;DHT22;2136;48.502;9.194;2024-03-22T13:13:57;24.90;32.30
4245;DHT22;2136;48.502;9.194;2024-03-22T13:16:26;24.90;32.00
4245;DHT22;2136;48.502;9.194;2024-03-22T13:18:53;24.90;31.70
4245;DHT22;2136;48.502;9.194;2024-03-22T13:21:19;24.90;32.30
4245;DHT22;2136;48.502;9.194;2024-03-22T13:23:45;25.00;32.20
4245;DHT22;2136;48.502;9.194;2024-03-22T13:26:11;25.20;31.90
4245;DHT22;2136;48.502;9.194;2024-03-22T13:28:38;25.40;32.20
4245;DHT22;2136;48.502;9.194;2024-03-22T13:31:04;25.50;31.90
4245;DHT22;2136;48.502;9.194;2024-03-22T13:33:36;25.60;31.60
4245;DHT22;2136;48.502;9.194;2024-03-22T13:36:02;25.80;31.40
4245;DHT22;2136;48.502;9.194;2024-03-22T13:38:30;26.00;31.20
4245;DHT22;2136;48.502;9.194;2024-03-22T13:40:57;26.70;29.70
4245;DHT22;2136;48.502;9.194;2024-03-22T13:43:26;27.70;29.10
4245;DHT22;2136;48.502;9.194;2024-03-22T13:45:52;28.40;28.50
4245;DHT22;2136;48.502;9.194;2024-03-22T13:48:21;28.70;27.80
4245;DHT22;2136;48.502;9.194;2024-03-22T13:50:51;28.80;27.40
4245;DHT22;2136;48.502;9.194;2024-03-22T13:53:18;28.90;27.20
4245;DHT22;2136;48.502;9.194;2024-03-22T13:55:44;28.90;27.10
4245;DHT22;2136;48.502;9.194;2024-03-22T13:58:12;28.90;26.10
4245;DHT22;2136;48.502;9.194;2024-03-22T14:00:38;28.90;25.00
4245;DHT22;2136;48.502;9.194;2024-03-22T14:03:05;28.60;23.80
4245;DHT22;2136;48.502;9.194;2024-03-22T14:05:31;28.20;24.20
4245;DHT22;2136;48.502;9.194;2024-03-22T14:07:59;27.60;24.70
4245;DHT22;2136;48.502;9.194;2024-03-22T14:10:25;27.10;25.50
4245;DHT22;2136;48.502;9.194;2024-03-22T14:12:55;27.10;25.80
4245;DHT22;2136;48.502;9.194;2024-03-22T14:15:22;27.40;25.50
4245;DHT22;2136;48.502;9.194;2024-03-22T14:17:50;27.90;25.20
4245;DHT22;2136;48.502;9.194;2024-03-22T14:20:16;28.30;25.00
4245;DHT22;2136;48.502;9.194;2024-03-22T14:22:43;28.20;24.70
4245;DHT22;2136;48.502;9.194;2024-03-22T14:25:10;28.00;24.80
4245;DHT22;2136;48.502;9.194;2024-03-22T14:27:37;27.50;25.00
4245;DHT22;2136;48.502;9.194;2024-03-22T14:30:05;27.10;25.20
4245;DHT22;2136;48.502;9.194;2024-03-22T14:32:33;26.90;25.00
4245;DHT22;2136;48.502;9.194;2024-03-22T14:34:59;26.70;25.50
4245;DHT22;2136;48.502;9.194;2024-03-22T14:37:26;26.40;25.20
4245;DHT22;2136;48.502;9.194;2024-03-22T14:39:52;26.00;25.40
4245;DHT22;2136;48.502;9.194;2024-03-22T14:42:20;25.60;26.00
4245;DHT22;2136;48.502;9.194;2024-03-22T14:44:46;25.30;26.10
4245;DHT22;2136;48.502;9.194;2024-03-22T14:47:13;24.90;26.10
4245;DHT22;2136;48.502;9.194;2024-03-22T14:49:39;24.70;26.50
4245;DHT22;2136;48.502;9.194;2024-03-22T14:52:06;24.50;27.30
4245;DHT22;2136;48.502;9.194;2024-03-22T14:54:32;24.50;27.20
4245;DHT22;2136;48.502;9.194;2024-03-22T14:56:59;24.50;27.60
4245;DHT22;2136;48.502;9.194;2024-03-22T14:59:28;24.60;27.70
4245;DHT22;2136;48.502;9.194;2024-03-22T15:01:55;24.70;27.30
4245;DHT22;2136;48.502;9.194;2024-03-22T15:04:21;24.80;27.50
4245;DHT22;2136;48.502;9.194;2024-03-22T15:06:49;24.80;27.40
4245;DHT22;2136;48.502;9.194;2024-03-22T15:09:16;24.90;28.00
4245;DHT22;2136;48.502;9.194;2024-03-22T15:11:44;25.10;27.60
4245;DHT22;2136;48.502;9.194;2024-03-22T15:14:10;25.00;27.50
4245;DHT22;2136;48.502;9.194;2024-03-22T15:16:38;24.80;27.30
4245;DHT22;2136;48.502;9.194;2024-03-22T15:19:04;24.50;27.30
4245;DHT22;2136;48.502;9.194;2024-03-22T15:21:31;24.40;27.70
4245;DHT22;2136;48.502;9.194;2024-03-22T15:23:57;24.30;28.20
4245;DHT22;2136;48.502;9.194;2024-03-22T15:26:23;24.10;28.30
4245;DHT22;2136;48.502;9.194;2024-03-22T15:28:49;24.00;28.50
4245;DHT22;2136;48.502;9.194;2024-03-22T15:31:16;23.80;28.80
4245;DHT22;2136;48.502;9.194;2024-03-22T15:33:43;23.60;29.10
4245;DHT22;2136;48.502;9.194;2024-03-22T15:36:10;23.40;29.70
4245;DHT22;2136;48.502;9.194;2024-03-22T15:38:36;23.20;30.00
4245;DHT22;2136;48.502;9.194;2024-03-22T15:41:03;23.00;31.30
4245;DHT22;2136;48.502;9.194;2024-03-22T15:43:29;22.80;30.90
4245;DHT22;2136;48.502;9.194;2024-03-22T15:45:55;22.60;31.20
4245;DHT22;2136;48.502;9.194;2024-03-22T15:48:21;22.40;31.80
4245;DHT22;2136;48.502;9.194;2024-03-22T15:50:51;22.20;32.50
4245;DHT22;2136;48.502;9.194;2024-03-22T15:53:17;22.00;32.90
4245;DHT22;2136;48.502;9.194;2024-03-22T15:55:44;21.90;32.90
4245;DHT22;2136;48.502;9.194;2024-03-22T15:58:10;21.80;32.70
4245;DHT22;2136;48.502;9.194;2024-03-22T16:00:36;21.60;32.60
4245;DHT22;2136;48.502;9.194;2024-03-22T16:03:03;21.50;32.90